createdAt,value
2018-02-21T00:03:57.748Z,61.00
2018-02-21T00:08:58.720Z,60.10
2018-02-21T00:14:00.430Z,61.30
2018-02-21T00:19:01.391Z,61.20
2018-02-21T00:24:03.110Z,61.70
2018-02-21T00:29:04.071Z,61.70
2018-02-21T00:34:05.783Z,62.90
2018-02-21T00:39:07.598Z,62.20
2018-02-21T00:44:08.519Z,62.20
2018-02-21T00:49:09.487Z,62.50
2018-02-21T00:54:10.460Z,62.80
2018-02-21T00:59:11.443Z,62.90
2018-02-21T01:04:12.421Z,63.10
2018-02-21T01:09:13.391Z,63.80
2018-02-21T01:14:14.359Z,63.70
2018-02-21T01:19:15.347Z,65.00
2018-02-21T01:24:16.329Z,65.00
2018-02-21T01:29:17.302Z,65.50
2018-02-21T01:34:19.032Z,65.80
2018-02-21T01:39:20.000Z,65.70
2018-02-21T01:44:20.985Z,66.20
2018-02-21T01:49:21.977Z,66.90
2018-02-21T01:54:22.992Z,67.20
2018-02-21T01:59:23.992Z,67.20
2018-02-21T02:04:24.992Z,67.50
2018-02-21T02:09:26.743Z,66.70
2018-02-21T02:14:27.732Z,66.50
2018-02-21T02:19:28.768Z,66.20
2018-02-21T02:24:29.752Z,66.10
2018-02-21T02:29:30.743Z,66.80
2018-02-21T02:34:31.743Z,66.30
2018-02-21T02:39:45.237Z,66.40
2018-02-21T02:44:46.229Z,66.20
2018-02-21T02:49:47.217Z,66.40
2018-02-21T02:54:48.215Z,67.10
2018-02-21T02:59:49.963Z,68.80
2018-02-21T03:04:50.959Z,68.80
2018-02-21T03:09:51.951Z,69.80
2018-02-21T03:14:52.943Z,70.40
2018-02-21T03:19:53.944Z,71.30
2018-02-21T03:24:55.684Z,72.40
2018-02-21T03:29:56.697Z,72.30
2018-02-21T03:34:57.676Z,73.00
2018-02-21T03:39:58.699Z,72.40
2018-02-21T03:45:00.432Z,73.60
2018-02-21T03:50:01.674Z,73.60
2018-02-21T03:55:02.672Z,74.60
2018-02-21T04:00:04.412Z,75.60
2018-02-21T04:05:05.642Z,75.40
2018-02-21T04:10:06.615Z,75.50
2018-02-21T04:15:07.619Z,76.00
2018-02-21T04:20:09.344Z,77.70
2018-02-21T04:25:10.327Z,77.60
2018-02-21T04:30:11.644Z,77.70
2018-02-21T04:35:12.647Z,77.60
2018-02-21T04:40:13.880Z,78.30
2018-02-21T04:45:14.879Z,78.20
2018-02-21T04:50:16.183Z,78.70
2018-02-21T05:00:57.742Z,78.50
2018-02-21T05:05:58.740Z,78.90
2018-02-21T05:10:59.724Z,79.10
2018-02-21T05:16:01.039Z,80.50
2018-02-21T05:21:02.032Z,80.30
2018-02-21T05:26:03.255Z,81.30
2018-02-21T05:31:04.255Z,82.60
2018-02-21T05:36:05.303Z,82.70
2018-02-21T05:41:06.311Z,82.60
2018-02-21T05:46:08.048Z,83.60
2018-02-21T05:51:09.044Z,83.40
2018-02-21T05:56:10.056Z,82.50
2018-02-21T06:01:11.069Z,82.50
2018-02-21T06:06:12.073Z,82.80
2018-02-21T06:11:13.092Z,82.40
2018-02-21T06:16:29.041Z,82.40
2018-02-21T06:21:30.780Z,84.30
2018-02-21T06:26:31.782Z,84.20
2018-02-21T06:31:32.778Z,84.60
2018-02-21T06:36:33.779Z,85.40
2018-02-21T06:41:34.806Z,87.00
2018-02-21T06:46:35.817Z,87.20
2018-02-21T06:51:36.836Z,87.00
2018-02-21T06:56:37.831Z,86.40
2018-02-21T07:01:39.559Z,81.40
2018-02-21T07:06:40.570Z,81.30
2018-02-21T07:11:41.571Z,79.20
2018-02-21T07:16:42.569Z,77.20
2018-02-21T07:21:43.560Z,75.80
2018-02-21T07:26:45.309Z,71.30
2018-02-21T07:31:46.317Z,71.30
2018-02-21T07:36:47.319Z,69.70
2018-02-21T07:41:49.079Z,65.90
2018-02-21T07:46:50.083Z,65.80
2018-02-21T07:51:51.092Z,65.30
2018-02-21T07:56:52.853Z,60.30
2018-02-21T08:01:53.860Z,60.20
2018-02-21T08:06:54.855Z,58.80
2018-02-21T08:11:56.591Z,55.90
2018-02-21T08:16:57.609Z,55.90
2018-02-21T08:21:58.615Z,55.40
2018-02-21T08:26:59.592Z,54.30
2018-02-21T08:32:00.596Z,52.30
2018-02-21T08:37:02.332Z,50.30
2018-02-21T08:42:03.332Z,50.30
2018-02-21T08:47:04.358Z,48.80
2018-02-21T08:52:06.131Z,45.60
2018-02-21T08:57:07.139Z,45.60
2018-02-21T09:02:08.872Z,44.50
2018-02-21T09:07:09.879Z,44.40
2018-02-21T09:12:10.895Z,42.60
2018-02-21T09:17:12.628Z,42.70
2018-02-21T09:22:13.620Z,42.60
2018-02-21T09:27:14.609Z,42.90
2018-02-21T09:32:15.648Z,39.40
2018-02-21T09:37:16.664Z,39.40
2018-02-21T09:42:17.662Z,39.40
2018-02-21T09:47:18.686Z,38.70
2018-02-21T09:52:19.694Z,38.80
2018-02-21T09:57:20.731Z,38.70
2018-02-21T10:02:21.732Z,38.50
2018-02-21T10:07:23.483Z,37.90
2018-02-21T10:12:24.483Z,37.90
2018-02-21T10:17:25.486Z,37.00
2018-02-21T10:22:26.483Z,37.50
2018-02-21T10:27:27.501Z,36.00
2018-02-21T10:32:28.523Z,37.20
2018-02-21T10:37:29.515Z,37.50
2018-02-21T10:42:30.519Z,39.40
2018-02-21T10:47:32.254Z,40.20
2018-02-21T10:52:33.251Z,39.60
2018-02-21T10:57:34.252Z,39.80
2018-02-21T11:02:35.248Z,40.10
2018-02-21T11:07:37.014Z,38.70
2018-02-21T11:12:38.012Z,38.60
2018-02-21T11:17:39.017Z,39.50
2018-02-21T11:22:39.996Z,40.00
2018-02-21T11:27:41.003Z,39.70
2018-02-21T11:32:42.744Z,38.80
2018-02-21T11:37:43.745Z,38.60
2018-02-21T11:42:44.746Z,39.00
2018-02-21T11:47:45.737Z,38.10
2018-02-21T11:52:46.731Z,38.40
2018-02-21T11:57:48.477Z,37.80
2018-02-21T12:02:49.484Z,37.70
2018-02-21T12:07:50.498Z,37.50
2018-02-21T12:12:52.228Z,37.50
2018-02-21T12:17:53.215Z,37.50
2018-02-21T12:22:54.216Z,38.20
2018-02-21T12:27:55.204Z,37.80
2018-02-21T12:32:56.991Z,37.10
2018-02-21T12:37:57.987Z,37.90
2018-02-21T12:42:58.976Z,37.00
2018-02-21T12:47:59.971Z,37.60
2018-02-21T12:53:01.188Z,37.10
2018-02-21T12:58:02.916Z,36.80
2018-02-21T13:03:03.912Z,36.70
2018-02-21T13:08:04.899Z,37.30
2018-02-21T13:13:05.891Z,36.90
2018-02-21T13:18:06.881Z,37.10
2018-02-21T13:23:07.888Z,37.40
2018-02-21T13:28:09.635Z,35.90
2018-02-21T13:33:10.646Z,35.90
2018-02-21T13:38:11.643Z,35.40
2018-02-21T13:43:12.644Z,36.00
2018-02-21T13:48:14.400Z,34.80
2018-02-21T13:53:15.403Z,34.80
2018-02-21T13:58:17.152Z,34.60
2018-02-21T14:03:18.163Z,34.60
2018-02-21T14:08:19.188Z,33.90
2018-02-21T14:13:20.944Z,35.20
2018-02-21T14:18:21.940Z,35.20
2018-02-21T14:23:22.946Z,35.30
2018-02-21T14:28:24.667Z,36.60
2018-02-21T14:33:25.668Z,36.60
2018-02-21T14:38:26.671Z,36.70
2018-02-21T14:43:27.681Z,36.60
2018-02-21T14:48:28.672Z,37.00
2018-02-21T14:53:29.668Z,35.70
2018-02-21T14:58:31.424Z,36.10
2018-02-21T15:03:39.352Z,36.10
2018-02-21T15:08:40.339Z,35.90
2018-02-21T15:13:41.327Z,35.50
2018-02-21T15:18:42.336Z,36.00
2018-02-21T15:23:43.323Z,36.10
2018-02-21T15:28:44.328Z,35.80
2018-02-21T15:33:46.067Z,35.70
2018-02-21T15:38:47.142Z,35.70
2018-02-21T15:43:48.072Z,35.40
2018-02-21T15:48:49.070Z,35.40
2018-02-21T15:53:57.812Z,36.00
2018-02-21T15:58:58.806Z,36.00
2018-02-21T16:03:59.800Z,35.60
2018-02-21T16:09:01.520Z,36.50
2018-02-21T16:14:02.508Z,36.50
2018-02-21T16:19:03.539Z,37.50
2018-02-21T16:24:04.537Z,38.50
2018-02-21T16:29:05.562Z,38.40
2018-02-21T16:34:07.265Z,39.00
2018-02-21T16:39:08.265Z,39.00
2018-02-21T16:44:09.290Z,38.90
2018-02-21T16:49:10.253Z,39.10
2018-02-21T16:54:15.145Z,39.30
2018-02-21T16:59:16.160Z,39.50
2018-02-21T17:04:17.226Z,40.20
2018-02-21T17:09:18.963Z,40.60
2018-02-21T17:14:19.972Z,40.60
2018-02-21T17:19:21.966Z,41.10
2018-02-21T17:24:22.960Z,41.60
2018-02-21T17:29:23.959Z,42.20
2018-02-21T17:34:24.977Z,43.00
2018-02-21T17:39:26.053Z,43.30
2018-02-21T17:44:28.798Z,44.50
2018-02-21T17:49:30.131Z,44.40
2018-02-21T17:54:31.128Z,44.90
2018-02-21T17:59:32.125Z,45.40
2018-02-21T18:04:33.144Z,45.80
2018-02-21T18:09:34.140Z,46.40
2018-02-21T18:14:35.147Z,46.80
2018-02-21T18:19:36.164Z,47.00
2018-02-21T18:24:37.903Z,47.60
2018-02-21T18:29:38.915Z,47.60
2018-02-21T18:34:39.939Z,47.60
2018-02-21T18:39:40.944Z,48.00
2018-02-21T18:44:41.931Z,48.30
2018-02-21T18:49:42.937Z,48.50
2018-02-21T18:54:43.927Z,49.20
2018-02-21T18:59:44.908Z,49.50
2018-02-21T19:04:45.928Z,50.00
2018-02-21T19:09:48.310Z,50.40
2018-02-21T19:14:51.354Z,50.40
2018-02-21T19:19:52.593Z,51.80
2018-02-21T19:24:54.398Z,51.40
2018-02-21T19:29:55.400Z,51.70
2018-02-21T19:34:56.381Z,52.30
2018-02-21T19:39:57.355Z,52.70
2018-02-21T19:44:58.336Z,52.90
2018-02-21T19:49:59.316Z,53.20
2018-02-21T19:55:00.316Z,53.80
2018-02-21T20:00:01.455Z,54.10
2018-02-21T20:05:03.180Z,55.00
2018-02-21T20:10:04.167Z,54.90
2018-02-21T20:15:05.152Z,54.90
2018-02-21T20:20:06.204Z,54.80
2018-02-21T20:25:08.020Z,56.00
2018-02-21T20:30:09.036Z,55.90
2018-02-21T20:35:10.293Z,54.10
2018-02-21T20:40:11.279Z,55.30
2018-02-21T20:45:12.280Z,55.30
2018-02-21T20:50:13.276Z,55.90
2018-02-21T20:55:14.271Z,54.90
2018-02-21T21:00:15.311Z,55.10
2018-02-21T21:05:16.440Z,55.80
2018-02-21T21:10:17.440Z,55.20
2018-02-21T21:15:19.156Z,55.50
2018-02-21T21:20:20.151Z,55.30
2018-02-21T21:25:28.165Z,54.40
2018-02-21T21:30:29.156Z,54.70
2018-02-21T21:35:30.911Z,55.20
2018-02-21T21:40:31.911Z,55.10
2018-02-21T21:45:32.919Z,55.30
2018-02-21T21:50:34.664Z,55.70
2018-02-21T21:55:35.664Z,55.60
2018-02-21T22:00:36.648Z,56.00
2018-02-21T22:05:37.648Z,55.90
2018-02-21T22:10:38.635Z,55.50
2018-02-21T22:15:39.636Z,54.80
2018-02-21T22:20:40.655Z,55.00
2018-02-21T22:25:41.667Z,56.80
2018-02-21T22:30:42.659Z,56.60
2018-02-21T22:35:43.654Z,56.40
2018-02-21T22:40:44.648Z,56.00
2018-02-21T22:45:46.376Z,55.40
2018-02-21T22:50:47.361Z,55.30
2018-02-21T22:55:48.356Z,55.90
2018-02-21T23:00:49.368Z,57.60
2018-02-21T23:05:50.375Z,58.40
2018-02-21T23:10:52.117Z,59.60
2018-02-21T23:15:53.103Z,59.60
2018-02-21T23:20:54.104Z,59.10
2018-02-21T23:25:55.090Z,59.90
2018-02-21T23:30:56.076Z,60.40
2018-02-21T23:35:57.065Z,61.30
2018-02-21T23:40:58.051Z,61.80
2018-02-21T23:45:59.035Z,62.10
2018-02-21T23:51:00.025Z,62.70
2018-02-21T23:56:01.024Z,62.90
